createdAt,value
2022-09-14T00:01:24.716Z,94231.59
2022-09-14T00:03:53.595Z,94240.16
2022-09-14T00:06:21.408Z,94245.00
2022-09-14T00:08:51.822Z,94253.25
2022-09-14T00:11:19.540Z,94252.66
2022-09-14T00:13:48.411Z,94252.84
2022-09-14T00:16:19.472Z,94245.88
2022-09-14T00:18:51.811Z,94233.84
2022-09-14T00:21:19.576Z,94238.56
2022-09-14T00:23:47.238Z,94236.31
2022-09-14T00:26:16.660Z,94230.97
2022-09-14T00:28:45.401Z,94232.63
2022-09-14T00:31:13.691Z,94226.78
2022-09-14T00:33:44.525Z,94222.22
2022-09-14T00:36:14.112Z,94206.81
2022-09-14T00:38:41.953Z,94205.69
2022-09-14T00:41:12.403Z,94195.13
2022-09-14T00:43:54.146Z,94186.66
2022-09-14T00:46:22.110Z,94186.44
2022-09-14T00:48:51.130Z,94184.31
2022-09-14T00:51:20.160Z,94181.88
2022-09-14T00:53:48.000Z,94181.88
2022-09-14T00:56:16.104Z,94173.09
2022-09-14T00:58:44.525Z,94173.34
2022-09-14T01:01:12.468Z,94171.31
2022-09-14T01:03:40.240Z,94156.44
2022-09-14T01:06:18.233Z,94157.44
2022-09-14T01:09:08.155Z,94155.22
2022-09-14T01:11:48.278Z,94157.31
2022-09-14T01:14:23.939Z,94151.19
2022-09-14T01:16:56.629Z,94159.06
2022-09-14T01:19:27.294Z,94150.00
2022-09-14T01:21:56.968Z,94150.00
2022-09-14T01:24:29.517Z,94148.06
2022-09-14T01:27:22.881Z,94142.56
2022-09-14T01:29:54.015Z,94132.16
2022-09-14T01:32:23.592Z,94126.16
2022-09-14T01:34:55.085Z,94124.03
2022-09-14T01:37:28.360Z,94126.78
2022-09-14T01:39:58.905Z,94120.72
2022-09-14T01:42:28.802Z,94137.00
2022-09-14T01:44:58.204Z,94141.53
2022-09-14T01:47:29.066Z,94136.50
2022-09-14T01:50:00.091Z,94130.41
2022-09-14T01:52:31.765Z,94127.53
2022-09-14T01:55:02.878Z,94123.03
2022-09-14T01:57:35.727Z,94131.78
2022-09-14T02:00:07.809Z,94136.16
2022-09-14T02:02:38.462Z,94124.84
2022-09-14T02:05:10.576Z,94131.34
2022-09-14T02:07:38.469Z,94143.47
2022-09-14T02:10:09.002Z,94143.66
2022-09-14T02:12:38.297Z,94147.44
2022-09-14T02:15:07.687Z,94136.63
2022-09-14T02:17:35.347Z,94141.50
2022-09-14T02:20:06.198Z,94136.50
2022-09-14T02:22:34.192Z,94139.72
2022-09-14T02:25:01.964Z,94124.66
2022-09-14T02:27:29.601Z,94114.16
2022-09-14T02:29:58.584Z,94109.75
2022-09-14T02:32:32.306Z,94102.66
2022-09-14T02:35:07.368Z,94096.00
2022-09-14T02:37:40.802Z,94082.88
2022-09-14T02:40:14.036Z,94089.69
2022-09-14T02:42:49.099Z,94092.25
2022-09-14T02:45:24.053Z,94095.13
2022-09-14T02:47:55.831Z,94084.44
2022-09-14T02:50:27.747Z,94086.69
2022-09-14T02:53:05.778Z,94089.94
2022-09-14T02:55:36.923Z,94094.81
2022-09-14T02:58:07.111Z,94084.13
2022-09-14T03:00:38.320Z,94076.97
2022-09-14T03:03:06.752Z,94078.13
2022-09-14T03:05:35.068Z,94070.19
2022-09-14T03:08:03.966Z,94067.44
2022-09-14T03:10:32.150Z,94064.34
2022-09-14T03:13:00.365Z,94059.34
2022-09-14T03:15:28.608Z,94067.28
2022-09-14T03:17:57.790Z,94070.34
2022-09-14T03:20:28.211Z,94072.63
2022-09-14T03:22:55.864Z,94068.84
2022-09-14T03:25:23.911Z,94070.78
2022-09-14T03:27:52.230Z,94074.84
2022-09-14T03:30:20.438Z,94064.97
2022-09-14T03:32:48.534Z,94069.16
2022-09-14T03:35:18.237Z,94063.47
2022-09-14T03:37:46.978Z,94069.09
2022-09-14T03:40:21.405Z,94063.59
2022-09-14T03:42:50.660Z,94064.09
2022-09-14T03:45:19.113Z,94067.78
2022-09-14T03:47:47.104Z,94071.97
2022-09-14T03:50:15.837Z,94070.34
2022-09-14T03:52:45.061Z,94069.84
2022-09-14T03:55:12.989Z,94078.59
2022-09-14T03:57:40.843Z,94080.44
2022-09-14T04:00:10.339Z,94090.00
2022-09-14T04:02:38.106Z,94077.25
2022-09-14T04:05:06.401Z,94085.81
2022-09-14T04:07:34.174Z,94076.25
2022-09-14T04:10:03.277Z,94081.09
2022-09-14T04:12:35.622Z,94082.44
2022-09-14T04:15:03.590Z,94073.88
2022-09-14T04:17:31.417Z,94075.81
2022-09-14T04:19:59.091Z,94080.34
2022-09-14T04:22:26.762Z,94072.63
2022-09-14T04:24:54.964Z,94075.25
2022-09-14T04:27:24.363Z,94065.22
2022-09-14T04:29:52.443Z,94063.97
2022-09-14T04:32:20.195Z,94063.38
2022-09-14T04:34:49.460Z,94071.50
2022-09-14T04:37:17.430Z,94076.38
2022-09-14T04:39:45.355Z,94069.41
2022-09-14T04:42:13.228Z,94068.78
2022-09-14T04:44:42.254Z,94062.34
2022-09-14T04:47:10.006Z,94064.47
2022-09-14T04:49:37.600Z,94065.44
2022-09-14T04:52:05.500Z,94065.44
2022-09-14T04:54:33.274Z,94063.00
2022-09-14T04:57:01.083Z,94061.03
2022-09-14T04:59:28.716Z,94054.41
2022-09-14T05:01:57.883Z,94054.41
2022-09-14T05:04:25.760Z,94057.03
2022-09-14T05:06:53.493Z,94051.38
2022-09-14T05:09:21.639Z,94050.75
2022-09-14T05:11:51.840Z,94052.88
2022-09-14T05:14:19.773Z,94051.63
2022-09-14T05:16:48.068Z,94056.47
2022-09-14T05:19:18.605Z,94061.34
2022-09-14T05:21:46.629Z,94048.56
2022-09-14T05:24:16.098Z,94050.38
2022-09-14T05:26:44.929Z,94052.47
2022-09-14T05:29:13.653Z,94051.03
2022-09-14T05:31:41.514Z,94050.72
2022-09-14T05:34:10.237Z,94044.88
2022-09-14T05:36:39.523Z,94043.09
2022-09-14T05:39:07.363Z,94039.69
2022-09-14T05:41:35.169Z,94045.38
2022-09-14T05:44:03.123Z,94036.63
2022-09-14T05:46:30.873Z,94048.06
2022-09-14T05:48:58.653Z,94040.75
2022-09-14T05:51:28.332Z,94067.69
2022-09-14T05:53:59.322Z,94055.19
2022-09-14T05:56:28.454Z,94064.78
2022-09-14T05:58:56.203Z,94067.22
2022-09-14T06:01:25.799Z,94083.13
2022-09-14T06:03:54.731Z,94079.72
2022-09-14T06:06:23.086Z,94076.63
2022-09-14T06:08:53.783Z,94080.38
2022-09-14T06:11:24.399Z,94089.94
2022-09-14T06:13:52.650Z,94081.34
2022-09-14T06:16:22.035Z,94071.94
2022-09-14T06:18:50.228Z,94075.19
2022-09-14T06:21:19.922Z,94092.22
2022-09-14T06:23:48.579Z,94090.47
2022-09-14T06:29:13.572Z,94098.41
2022-09-14T06:31:41.296Z,94098.91
2022-09-14T06:34:08.989Z,94109.47
2022-09-14T06:36:37.921Z,94105.41
2022-09-14T06:39:05.713Z,94106.72
2022-09-14T06:41:34.826Z,94091.13
2022-09-14T06:44:02.802Z,94081.88
2022-09-14T06:46:31.780Z,94078.47
2022-09-14T06:49:01.553Z,94057.34
2022-09-14T06:51:31.684Z,94061.72
2022-09-14T06:54:00.482Z,94065.47
2022-09-14T06:56:28.308Z,94053.75
2022-09-14T06:58:58.440Z,94046.75
2022-09-14T07:01:27.667Z,94035.88
2022-09-14T07:03:55.648Z,94035.91
2022-09-14T07:06:25.781Z,94038.97
2022-09-14T07:08:54.456Z,94049.03
2022-09-14T07:11:25.728Z,94048.53
2022-09-14T07:13:54.959Z,94047.53
2022-09-14T07:16:24.578Z,94043.09
2022-09-14T07:18:54.217Z,94044.69
2022-09-14T07:21:22.458Z,94045.16
2022-09-14T07:23:50.628Z,94050.31
2022-09-14T07:26:20.292Z,94049.44
2022-09-14T07:28:51.786Z,94056.59
2022-09-14T07:31:21.870Z,94067.28
2022-09-14T07:33:54.361Z,94067.50
2022-09-14T07:36:23.094Z,94066.63
2022-09-14T07:38:52.949Z,94069.50
2022-09-14T07:41:21.732Z,94070.72
2022-09-14T07:43:50.489Z,94058.44
2022-09-14T07:46:18.486Z,94063.25
2022-09-14T07:48:46.219Z,94072.31
2022-09-14T07:51:15.440Z,94072.56
2022-09-14T07:53:44.161Z,94073.44
2022-09-14T07:56:13.546Z,94078.56
2022-09-14T07:58:42.080Z,94090.84
2022-09-14T08:01:12.011Z,94095.84
2022-09-14T08:03:40.718Z,94098.84
2022-09-14T08:06:10.728Z,94118.50
2022-09-14T08:08:41.810Z,94106.91
2022-09-14T08:11:11.639Z,94100.34
2022-09-14T08:13:40.300Z,94093.19
2022-09-14T08:16:08.263Z,94095.75
2022-09-14T08:18:36.898Z,94087.34
2022-09-14T08:21:07.579Z,94088.72
2022-09-14T08:23:35.888Z,94095.13
2022-09-14T08:26:05.664Z,94091.63
2022-09-14T08:28:34.048Z,94091.38
2022-09-14T08:31:06.959Z,94093.44
2022-09-14T08:33:35.736Z,94095.72
2022-09-14T08:36:03.953Z,94099.41
2022-09-14T08:38:31.834Z,94107.25
2022-09-14T08:41:00.638Z,94112.41
2022-09-14T08:43:29.675Z,94112.44
2022-09-14T08:46:03.726Z,94114.53
2022-09-14T08:48:34.703Z,94118.91
2022-09-14T08:51:02.557Z,94117.47
2022-09-14T08:53:30.254Z,94112.09
2022-09-14T08:56:01.478Z,94122.88
2022-09-14T08:58:46.309Z,94127.91
2022-09-14T09:01:22.339Z,94135.28
2022-09-14T09:04:00.278Z,94145.63
2022-09-14T09:06:34.157Z,94147.41
2022-09-14T09:09:09.255Z,94141.66
2022-09-14T09:11:40.352Z,94160.22
2022-09-14T09:14:18.546Z,94160.13
2022-09-14T09:16:48.171Z,94168.19
2022-09-14T09:19:19.276Z,94167.03
2022-09-14T09:21:48.800Z,94160.00
2022-09-14T09:24:23.810Z,94156.16
2022-09-14T09:26:51.465Z,94148.53
2022-09-14T09:29:20.621Z,94158.53
2022-09-14T09:31:51.915Z,94162.91
2022-09-14T09:34:25.698Z,94171.94
2022-09-14T09:36:53.593Z,94157.81
2022-09-14T09:39:32.270Z,94157.91
2022-09-14T09:42:02.684Z,94169.72
2022-09-14T09:44:31.651Z,94159.84
2022-09-14T09:47:00.918Z,94155.91
2022-09-14T09:49:31.601Z,94150.44
2022-09-14T09:52:08.241Z,94139.34
2022-09-14T09:54:36.630Z,94133.25
2022-09-14T09:57:06.443Z,94136.72
2022-09-14T09:59:36.909Z,94119.63
2022-09-14T10:02:27.922Z,94125.53
2022-09-14T10:05:01.540Z,94118.81
2022-09-14T10:07:30.324Z,94127.50
2022-09-14T10:09:59.442Z,94121.06
2022-09-14T10:12:27.742Z,94118.28
2022-09-14T10:15:15.527Z,94118.56
2022-09-14T10:17:55.552Z,94114.63
2022-09-14T10:20:24.779Z,94117.00
2022-09-14T10:22:52.661Z,94111.38
2022-09-14T10:25:26.146Z,94098.63
2022-09-14T10:28:03.117Z,94082.53
2022-09-14T10:30:38.232Z,94073.09
2022-09-14T10:33:07.423Z,94065.66
2022-09-14T10:35:47.387Z,94056.03
2022-09-14T10:38:26.160Z,94055.63
2022-09-14T10:41:14.463Z,94059.59
2022-09-14T10:44:03.406Z,94050.28
2022-09-14T10:46:39.163Z,94042.59
2022-09-14T10:49:24.811Z,94040.06
2022-09-14T10:51:57.541Z,94049.88
2022-09-14T10:54:41.013Z,94046.47
2022-09-14T10:57:14.626Z,94032.53
2022-09-14T10:59:48.453Z,94042.78
2022-09-14T11:02:29.617Z,94036.47
2022-09-14T11:05:07.326Z,94035.78
2022-09-14T11:07:39.103Z,94038.94
2022-09-14T11:10:18.476Z,94034.66
2022-09-14T11:12:55.755Z,94027.69
2022-09-14T11:15:29.252Z,94018.75
2022-09-14T11:18:08.604Z,94017.22
2022-09-14T11:20:42.957Z,94019.97
2022-09-14T11:23:21.224Z,94018.50
2022-09-14T11:25:53.647Z,94013.00
2022-09-14T11:28:24.513Z,94011.75
2022-09-14T11:30:55.699Z,94010.38
2022-09-14T11:33:31.202Z,94012.09
2022-09-14T11:36:02.732Z,94007.34
2022-09-14T11:38:32.244Z,94005.50
2022-09-14T11:41:03.096Z,93998.25
2022-09-14T11:43:32.182Z,94000.00
2022-09-14T11:46:05.993Z,93991.72
2022-09-14T11:48:55.697Z,93979.50
2022-09-14T11:51:26.192Z,93973.19
2022-09-14T11:53:54.029Z,93975.41
2022-09-14T11:56:26.807Z,93978.75
2022-09-14T11:58:59.372Z,93973.22
2022-09-14T12:01:33.570Z,93975.91
2022-09-14T12:04:20.402Z,93980.78
2022-09-14T12:06:51.376Z,93972.75
2022-09-14T12:09:53.699Z,93981.09
2022-09-14T12:12:36.607Z,93977.31
2022-09-14T12:15:15.426Z,93983.84
2022-09-14T12:17:45.278Z,93973.44
2022-09-14T12:20:44.871Z,93983.41
2022-09-14T12:23:31.088Z,93982.50
2022-09-14T12:26:31.268Z,93975.56
2022-09-14T12:29:05.788Z,93980.72
2022-09-14T12:31:56.182Z,93982.84
2022-09-14T12:34:24.723Z,93985.00
2022-09-14T12:37:24.888Z,93998.81
2022-09-14T12:40:37.959Z,94003.44
2022-09-14T12:43:49.210Z,94002.38
2022-09-14T12:46:41.789Z,93997.66
2022-09-14T12:49:30.266Z,93978.06
2022-09-14T12:52:00.583Z,93979.59
2022-09-14T12:54:39.294Z,93981.72
2022-09-14T12:57:24.397Z,93973.34
2022-09-14T12:59:56.438Z,93983.84
2022-09-14T13:02:56.696Z,93969.50
2022-09-14T13:05:26.659Z,93965.41
2022-09-14T13:07:54.983Z,93957.41
2022-09-14T13:10:28.792Z,93945.94
2022-09-14T13:12:57.098Z,93944.22
2022-09-14T13:15:27.829Z,93953.75
2022-09-14T13:18:00.066Z,93952.25
2022-09-14T13:20:28.419Z,93951.53
2022-09-14T13:22:56.161Z,93952.56
2022-09-14T13:25:32.574Z,93949.03
2022-09-14T13:28:02.202Z,93947.25
2022-09-14T13:30:31.737Z,93947.38
2022-09-14T13:33:00.320Z,93944.31
2022-09-14T13:35:34.170Z,93950.47
2022-09-14T13:38:07.334Z,93947.63
2022-09-14T13:40:37.623Z,93954.25
2022-09-14T13:43:05.412Z,93952.94
2022-09-14T13:45:33.992Z,93944.47
2022-09-14T13:48:02.168Z,93945.50
2022-09-14T13:50:29.951Z,93947.66
2022-09-14T13:53:02.346Z,93950.59
2022-09-14T13:55:45.106Z,93955.09
2022-09-14T13:58:22.354Z,93955.09
2022-09-14T14:00:53.532Z,93957.75
2022-09-14T14:03:33.539Z,93964.34
2022-09-14T14:06:05.115Z,93959.00
2022-09-14T14:08:35.957Z,93964.19
2022-09-14T14:11:06.831Z,93962.34
2022-09-14T14:13:35.650Z,93968.81
2022-09-14T14:16:20.504Z,93958.97
2022-09-14T14:18:53.533Z,93969.72
2022-09-14T14:21:29.867Z,93959.69
2022-09-14T14:24:24.456Z,93958.78
2022-09-14T14:26:55.297Z,93959.44
2022-09-14T14:29:23.169Z,93967.34
2022-09-14T14:31:51.250Z,93956.06
2022-09-14T14:34:22.297Z,93951.19
2022-09-14T14:36:50.926Z,93956.59
2022-09-14T14:39:21.233Z,93961.06
2022-09-14T14:41:49.564Z,93959.72
2022-09-14T14:44:20.848Z,93964.03
2022-09-14T14:46:48.619Z,93965.63
2022-09-14T14:49:17.823Z,93964.75
2022-09-14T14:51:45.570Z,93969.75
2022-09-14T14:54:16.781Z,93971.56
2022-09-14T14:56:46.480Z,93960.34
2022-09-14T14:59:26.840Z,93960.78
2022-09-14T15:01:55.316Z,93948.56
2022-09-14T15:04:23.122Z,93951.38
2022-09-14T15:06:51.269Z,93959.59
2022-09-14T15:09:19.976Z,93968.66
2022-09-14T15:11:48.855Z,93972.66
2022-09-14T15:14:22.128Z,93983.88
2022-09-14T15:16:55.079Z,93989.88
2022-09-14T15:19:22.745Z,94001.72
2022-09-14T15:21:50.440Z,94015.88
2022-09-14T15:24:18.080Z,94016.41
2022-09-14T15:26:45.734Z,94041.66
2022-09-14T15:29:14.241Z,94007.06
2022-09-14T15:31:43.356Z,94020.59
2022-09-14T15:34:11.212Z,94026.97
2022-09-14T15:36:40.912Z,94036.50
2022-09-14T15:39:10.912Z,94027.16
2022-09-14T15:41:38.704Z,94021.25
2022-09-14T15:44:07.354Z,94013.50
2022-09-14T15:46:35.111Z,94015.63
2022-09-14T15:49:08.216Z,94019.91
2022-09-14T15:51:35.894Z,94020.22
2022-09-14T15:54:04.173Z,94024.81
2022-09-14T15:56:31.890Z,94027.50
2022-09-14T15:59:00.438Z,94027.69
2022-09-14T16:01:29.117Z,94038.50
2022-09-14T16:03:58.297Z,94037.34
2022-09-14T16:06:28.071Z,94037.06
2022-09-14T16:08:56.189Z,94025.06
2022-09-14T16:11:23.821Z,94026.06
2022-09-14T16:13:52.341Z,94028.69
2022-09-14T16:16:21.269Z,94028.34
2022-09-14T16:18:49.849Z,94018.69
2022-09-14T16:21:19.165Z,94024.53
2022-09-14T16:23:49.683Z,94007.84
2022-09-14T16:26:20.506Z,94022.66
2022-09-14T16:28:49.550Z,94011.25
2022-09-14T16:31:18.677Z,94012.53
2022-09-14T16:33:47.685Z,94007.25
2022-09-14T16:36:17.644Z,94021.69
2022-09-14T16:38:45.277Z,94019.94
2022-09-14T16:41:15.033Z,94011.31
2022-09-14T16:43:43.136Z,94008.88
2022-09-14T16:46:12.580Z,94003.00
2022-09-14T16:48:42.016Z,94004.63
2022-09-14T16:51:10.253Z,94010.47
2022-09-14T16:53:39.256Z,94011.00
2022-09-14T16:56:08.719Z,94008.56
2022-09-14T16:58:38.789Z,94008.41
2022-09-14T17:01:07.972Z,94004.72
2022-09-14T17:03:36.016Z,93994.78
2022-09-14T17:06:04.707Z,93998.69
2022-09-14T17:08:32.812Z,93995.44
2022-09-14T17:11:01.041Z,94002.13
2022-09-14T17:13:29.131Z,93999.88
2022-09-14T17:16:03.281Z,94004.75
2022-09-14T17:18:31.141Z,94002.84
2022-09-14T17:21:00.403Z,94005.13
2022-09-14T17:23:28.399Z,93991.97
2022-09-14T17:25:56.694Z,93981.44
2022-09-14T17:28:28.196Z,93980.34
2022-09-14T17:30:57.532Z,93998.84
2022-09-14T17:33:27.281Z,94004.06
2022-09-14T17:35:56.379Z,94009.44
2022-09-14T17:38:25.780Z,94017.53
2022-09-14T17:40:53.544Z,94012.84
2022-09-14T17:43:21.291Z,94003.41
2022-09-14T17:45:55.860Z,94003.41
2022-09-14T17:48:24.404Z,93996.28
2022-09-14T17:50:53.611Z,93995.13
2022-09-14T17:53:21.717Z,94006.50
2022-09-14T17:55:49.401Z,94010.56
2022-09-14T17:58:19.769Z,94005.22
2022-09-14T18:00:47.632Z,94018.53
2022-09-14T18:03:15.364Z,94016.09
2022-09-14T18:05:43.039Z,93996.94
2022-09-14T18:08:12.005Z,94014.50
2022-09-14T18:10:39.633Z,94022.44
2022-09-14T18:13:07.238Z,94018.38
2022-09-14T18:15:38.297Z,94021.13
2022-09-14T18:18:08.139Z,94019.03
2022-09-14T18:20:35.765Z,94026.81
2022-09-14T18:23:03.317Z,94015.13
2022-09-14T18:25:32.504Z,94016.75
2022-09-14T18:28:00.085Z,94020.66
2022-09-14T18:30:27.895Z,94015.63
2022-09-14T18:32:55.533Z,94012.84
2022-09-14T18:35:23.251Z,94013.34
2022-09-14T18:37:50.855Z,94000.53
2022-09-14T18:40:20.419Z,94005.53
2022-09-14T18:42:50.282Z,93994.19
2022-09-14T18:45:18.004Z,93989.66
2022-09-14T18:47:45.651Z,93983.97
2022-09-14T18:50:14.860Z,93973.91
2022-09-14T18:52:42.530Z,93962.69
2022-09-14T18:55:10.560Z,93961.53
2022-09-14T18:57:38.207Z,93962.69
2022-09-14T19:00:09.325Z,93966.25
2022-09-14T19:02:38.948Z,93960.09
2022-09-14T19:05:07.430Z,93958.63
2022-09-14T19:07:36.176Z,93954.25
2022-09-14T19:10:03.856Z,93956.69
2022-09-14T19:12:31.664Z,93964.50
2022-09-14T19:14:59.283Z,93968.69
2022-09-14T19:17:28.700Z,93967.06
2022-09-14T19:19:56.343Z,93983.63
2022-09-14T19:22:24.003Z,93974.88
2022-09-14T19:24:51.755Z,93987.22
2022-09-14T19:27:19.413Z,93998.91
2022-09-14T19:29:47.067Z,93994.03
2022-09-14T19:32:14.761Z,93994.69
2022-09-14T19:34:43.791Z,93994.69
2022-09-14T19:37:11.565Z,93990.63
2022-09-14T19:39:39.244Z,93983.66
2022-09-14T19:42:07.175Z,93987.06
2022-09-14T19:44:34.822Z,93981.38
2022-09-14T19:47:02.466Z,93983.97
2022-09-14T19:49:30.170Z,93996.94
2022-09-14T19:51:59.189Z,93994.34
2022-09-14T19:54:26.869Z,93989.47
2022-09-14T19:56:54.557Z,93992.53
2022-09-14T19:59:22.229Z,93994.81
2022-09-14T20:01:50.903Z,93996.25
2022-09-14T20:04:19.279Z,94006.47
2022-09-14T20:06:48.168Z,94004.53
2022-09-14T20:09:19.449Z,94009.53
2022-09-14T20:11:48.784Z,94022.69
2022-09-14T20:14:18.953Z,94018.63
2022-09-14T20:16:48.517Z,94020.56
2022-09-14T20:19:17.685Z,94026.91
2022-09-14T20:21:46.292Z,94022.53
2022-09-14T20:24:17.363Z,94026.72
2022-09-14T20:26:47.335Z,94021.53
2022-09-14T20:29:15.345Z,94028.19
2022-09-14T20:31:43.274Z,94022.19
2022-09-14T20:34:11.222Z,94023.63
2022-09-14T20:36:38.871Z,94020.38
2022-09-14T20:39:06.508Z,94029.78
2022-09-14T20:41:35.707Z,94025.09
2022-09-14T20:44:05.257Z,94027.34
2022-09-14T20:46:35.991Z,94035.13
2022-09-14T20:49:04.714Z,94042.91
2022-09-14T20:51:32.845Z,94035.59
2022-09-14T20:54:00.494Z,94019.69
2022-09-14T20:56:30.983Z,94011.25
2022-09-14T20:58:59.675Z,94016.75
2022-09-14T21:01:30.234Z,94019.66
2022-09-14T21:04:03.928Z,94017.53
2022-09-14T21:06:32.017Z,94014.47
2022-09-14T21:09:00.980Z,94014.16
2022-09-14T21:11:29.058Z,94024.38
2022-09-14T21:13:57.638Z,94019.66
2022-09-14T21:16:26.783Z,94018.53
2022-09-14T21:18:57.339Z,94025.97
2022-09-14T21:21:25.731Z,94034.06
2022-09-14T21:23:54.149Z,94039.28
2022-09-14T21:26:21.767Z,94034.56
2022-09-14T21:28:49.666Z,94041.72
2022-09-14T21:31:19.013Z,94033.94
2022-09-14T21:33:48.171Z,94030.38
2022-09-14T21:36:18.516Z,94034.56
2022-09-14T21:38:49.601Z,94044.78
2022-09-14T21:41:17.230Z,94047.53
2022-09-14T21:43:44.851Z,94048.66
2022-09-14T21:46:12.981Z,94043.75
2022-09-14T21:48:40.604Z,94049.06
2022-09-14T21:51:17.086Z,94050.16
2022-09-14T21:53:47.278Z,94042.28
2022-09-14T21:56:15.194Z,94040.81
2022-09-14T21:58:42.862Z,94046.34
2022-09-14T22:01:11.645Z,94049.41
2022-09-14T22:03:40.374Z,94050.88
2022-09-14T22:06:10.172Z,94059.44
2022-09-14T22:08:37.781Z,94054.06
2022-09-14T22:11:08.239Z,94063.44
2022-09-14T22:13:35.846Z,94065.88
2022-09-14T22:16:08.736Z,94065.09
2022-09-14T22:18:36.895Z,94064.59
2022-09-14T22:21:05.316Z,94063.59
2022-09-14T22:23:33.498Z,94067.59
2022-09-14T22:26:03.746Z,94054.97
2022-09-14T22:28:32.673Z,94061.91
2022-09-14T22:31:00.372Z,94053.16
2022-09-14T22:33:28.911Z,94056.22
2022-09-14T22:35:57.815Z,94062.22
2022-09-14T22:38:27.389Z,94070.47
2022-09-14T22:40:56.199Z,94067.84
2022-09-14T22:43:24.324Z,94077.72
2022-09-14T22:45:53.897Z,94079.69
2022-09-14T22:48:22.554Z,94078.25
2022-09-14T22:50:51.850Z,94082.66
2022-09-14T22:53:20.002Z,94068.31
2022-09-14T22:55:48.120Z,94066.00
2022-09-14T22:58:17.247Z,94071.72
2022-09-14T23:00:46.571Z,94060.72
2022-09-14T23:03:17.205Z,94057.97
2022-09-14T23:05:50.657Z,94054.38
2022-09-14T23:08:18.879Z,94059.25
2022-09-14T23:10:47.466Z,94064.97
2022-09-14T23:13:15.547Z,94063.38
2022-09-14T23:15:43.573Z,94059.66
2022-09-14T23:18:11.729Z,94069.84
2022-09-14T23:20:42.499Z,94073.09
2022-09-14T23:23:10.740Z,94067.09
2022-09-14T23:25:40.298Z,94072.28
2022-09-14T23:28:09.210Z,94061.47
2022-09-14T23:30:36.925Z,94059.84
2022-09-14T23:33:04.741Z,94057.78
2022-09-14T23:35:35.807Z,94060.22
2022-09-14T23:38:06.861Z,94053.59
2022-09-14T23:40:34.614Z,94053.25
2022-09-14T23:43:02.385Z,94059.09
2022-09-14T23:45:30.125Z,94057.28
2022-09-14T23:47:57.719Z,94051.28
2022-09-14T23:50:25.828Z,94058.41
2022-09-14T23:52:57.348Z,94052.72
2022-09-14T23:55:26.532Z,94063.72
2022-09-14T23:57:54.436Z,94054.34
